Time;durP1;ratioP1;P1;durP2;ratioP2;P2;SDS_P1;SDS_P2;PMS_P1;PMS_P2;Temp;Humidity;BMP_temperature;BMP_pressure;BME280_temperature;BME280_humidity;BME280_pressure;Samples;Min_cycle;Max_cycle;Signal;HPM_P1;HPM_P2
2022/10/22 00:02:10;;;;;;;1.52;0.60;;;;;;;12.67;100.00;98513.94;5003001;28;20037;-60
2022/10/22 00:04:35;;;;;;;1.67;0.40;;;;;;;12.65;100.00;98499.75;4994311;28;20429;-60
2022/10/22 00:07:01;;;;;;;1.30;0.47;;;;;;;12.66;100.00;98509.56;4994987;28;20030;-60
2022/10/22 00:09:27;;;;;;;0.95;0.40;;;;;;;12.62;100.00;98513.78;4993260;28;20029;-60
2022/10/22 00:11:52;;;;;;;1.33;0.47;;;;;;;12.58;100.00;98509.88;4984232;28;20052;-60
2022/10/22 00:14:18;;;;;;;1.80;0.75;;;;;;;12.54;100.00;98512.19;4992910;28;20018;-59
2022/10/22 00:16:43;;;;;;;3.72;0.70;;;;;;;12.58;100.00;98509.88;5031696;28;20057;-60
2022/10/22 00:19:10;;;;;;;0.65;0.30;;;;;;;12.56;100.00;98518.22;4988294;28;20045;-60
2022/10/22 00:21:35;;;;;;;3.42;0.40;;;;;;;12.60;100.00;98515.88;4989063;28;20108;-60
2022/10/22 00:24:00;;;;;;;0.45;0.30;;;;;;;12.56;100.00;98520.09;4994674;28;20034;-60
2022/10/22 00:26:26;;;;;;;1.00;0.50;;;;;;;12.56;100.00;98511.97;4994645;28;20044;-60
2022/10/22 00:28:52;;;;;;;0.98;0.55;;;;;;;12.56;100.00;98514.69;4995091;28;20029;-60
2022/10/22 00:31:18;;;;;;;1.92;0.60;;;;;;;12.57;100.00;98510.91;5000100;28;20449;-60
2022/10/22 00:33:45;;;;;;;2.00;0.57;;;;;;;12.55;100.00;98510.28;4997682;28;20390;-60
2022/10/22 00:36:11;;;;;;;1.40;0.50;;;;;;;12.57;100.00;98510.91;5021049;28;20535;-60
2022/10/22 00:38:38;;;;;;;0.40;0.30;;;;;;;12.58;100.00;98496.28;5000192;28;20034;-60
2022/10/22 00:41:03;;;;;;;1.23;0.38;;;;;;;12.60;100.00;98497.72;4990933;28;20108;-60
2022/10/22 00:43:28;;;;;;;5.15;0.35;;;;;;;12.62;100.00;98506.47;5000169;28;20130;-60
2022/10/22 00:45:55;;;;;;;1.55;0.50;;;;;;;12.60;100.00;98510.44;4994038;28;20389;-60
2022/10/22 00:48:30;;;;;;;2.53;0.40;;;;;;;12.65;100.00;98529.59;5000511;28;20469;-60
2022/10/22 00:51:00;;;;;;;0.50;0.35;;;;;;;12.56;100.00;98534.50;4996185;28;20033;-60
2022/10/22 00:53:36;;;;;;;;;;;;;;;12.53;100.00;98534.13;4996150;28;20068;-60
2022/10/22 00:56:02;;;;;;;2.08;0.80;;;;;;;12.44;100.00;98530.84;5011514;28;19913;-60
2022/10/22 00:58:31;;;;;;;2.40;0.75;;;;;;;12.44;100.00;98536.25;5000788;28;20042;-61
2022/10/22 01:00:58;;;;;;;1.70;0.95;;;;;;;12.38;100.00;98531.75;4997220;28;20033;-61
2022/10/22 01:03:23;;;;;;;4.13;0.65;;;;;;;12.37;100.00;98520.06;4993146;28;20029;-61
2022/10/22 01:05:58;;;;;;;2.03;0.50;;;;;;;12.38;100.00;98510.03;4996001;28;20116;-61
2022/10/22 01:08:55;;;;;;;2.30;0.45;;;;;;;12.39;100.00;98496.25;4999048;28;20029;-61
2022/10/22 01:11:31;;;;;;;1.08;0.52;;;;;;;12.40;100.00;98503.34;4983186;28;20105;-61
2022/10/22 01:14:11;;;;;;;3.33;1.05;;;;;;;12.34;100.00;98487.97;4987971;28;20046;-61
2022/10/22 01:16:46;;;;;;;1.58;0.30;;;;;;;12.45;100.00;98492.66;4987495;28;20596;-61
2022/10/22 01:19:21;;;;;;;1.67;0.40;;;;;;;12.45;100.00;98476.38;4991841;28;20120;-61
2022/10/22 01:21:53;;;;;;;2.50;0.60;;;;;;;12.49;100.00;98466.72;4997230;28;20025;-61
2022/10/22 01:24:52;;;;;;;0.30;0.22;;;;;;;12.49;100.00;98474.03;4995012;28;20030;-61
2022/10/22 01:27:36;;;;;;;3.25;0.30;;;;;;;12.48;100.00;98488.66;5007225;28;20026;-61
2022/10/22 01:30:05;;;;;;;2.78;0.32;;;;;;;12.52;100.00;98499.88;4998246;28;20893;-61
2022/10/22 01:32:38;;;;;;;0.80;0.50;;;;;;;12.54;100.00;98489.63;4997648;28;20543;-61
2022/10/22 01:35:08;;;;;;;0.35;0.22;;;;;;;12.49;100.00;98491.13;4995977;28;20038;-61
2022/10/22 01:37:39;;;;;;;1.10;0.40;;;;;;;12.53;100.00;98504.28;4999159;28;20030;-61
2022/10/22 01:40:07;;;;;;;1.08;0.30;;;;;;;12.56;100.00;98509.25;4997460;28;20021;-61
2022/10/22 01:42:35;;;;;;;1.50;0.50;;;;;;;12.52;100.00;98502.59;5000538;28;20025;-61
2022/10/22 01:45:01;;;;;;;0.93;0.40;;;;;;;12.52;100.00;98518.88;5033061;28;20026;-61
2022/10/22 01:47:50;;;;;;;1.33;0.55;;;;;;;12.40;100.00;98529.63;5037695;22;20048;-75
2022/10/22 01:50:15;;;;;;;5.43;0.30;;;;;;;12.44;100.00;98536.25;5024388;28;20447;-75
2022/10/22 01:52:52;;;;;;;0.90;0.50;;;;;;;12.39;100.00;98511.69;4994619;28;20057;-75
2022/10/22 01:55:36;;;;;;;2.70;0.40;;;;;;;12.42;100.00;98527.53;4997078;28;20026;-75
2022/10/22 01:58:16;;;;;;;1.50;0.40;;;;;;;12.46;100.00;98528.75;5019855;28;20034;-76
2022/10/22 02:00:49;;;;;;;1.10;0.15;;;;;;;12.39;100.00;98531.53;5001631;28;20041;-74
2022/10/22 02:03:22;;;;;;;0.77;0.30;;;;;;;12.36;100.00;98550.94;4999627;28;20018;-75
2022/10/22 02:05:58;;;;;;;1.92;0.50;;;;;;;12.30;100.00;98551.84;4997838;28;20121;-74
2022/10/22 02:08:29;;;;;;;0.85;0.30;;;;;;;12.23;100.00;98551.03;5000477;28;20405;-74
2022/10/22 02:10:56;;;;;;;2.30;0.50;;;;;;;12.14;100.00;98564.06;5002007;28;20022;-75
2022/10/22 02:13:30;;;;;;;1.27;0.50;;;;;;;12.18;100.00;98569.84;5013674;28;20029;-74
2022/10/22 02:15:58;;;;;;;1.45;0.38;;;;;;;12.16;100.00;98574.69;5012172;28;20089;-74
2022/10/22 02:18:28;;;;;;;1.38;0.50;;;;;;;12.21;100.00;98570.25;4997808;28;20022;-74
2022/10/22 02:20:54;;;;;;;1.33;0.43;;;;;;;12.20;100.00;98584.03;4984223;28;20037;-74
2022/10/22 02:23:20;;;;;;;1.60;0.50;;;;;;;12.10;100.00;98572.84;4998957;28;20066;-73
2022/10/22 02:25:50;;;;;;;3.85;0.75;;;;;;;12.04;100.00;98569.13;4999591;28;20484;-73
2022/10/22 02:28:24;;;;;;;2.13;0.60;;;;;;;12.00;100.00;98563.31;5008841;28;20030;-74
2022/10/22 02:31:00;;;;;;;2.15;0.50;;;;;;;12.02;100.00;98585.59;4998534;28;20407;-75
2022/10/22 02:33:34;;;;;;;0.65;0.30;;;;;;;11.95;100.00;98575.88;4998400;28;20022;-75
2022/10/22 02:36:01;;;;;;;1.65;0.57;;;;;;;11.81;100.00;98562.34;4997001;28;20472;-75
2022/10/22 02:38:27;;;;;;;0.38;0.30;;;;;;;12.06;100.00;98548.03;4994753;28;20077;-75
2022/10/22 02:40:53;;;;;;;1.17;0.40;;;;;;;12.12;100.00;98530.06;5001316;28;20037;-75
2022/10/22 02:43:18;;;;;;;3.83;0.60;;;;;;;12.00;100.00;98517.22;5009172;28;20121;-76
2022/10/22 02:45:45;;;;;;;1.75;0.93;;;;;;;11.93;100.00;98545.44;5026746;28;20037;-76
2022/10/22 02:48:10;;;;;;;2.03;0.80;;;;;;;11.90;100.00;98554.81;5017483;28;20034;-76
2022/10/22 02:50:36;;;;;;;1.58;0.68;;;;;;;12.03;100.00;98557.44;5008219;28;20276;-75
2022/10/22 02:53:01;;;;;;;0.88;0.40;;;;;;;12.07;100.00;98539.69;5011616;28;20038;-76
2022/10/22 02:55:27;;;;;;;1.13;0.52;;;;;;;12.19;100.00;98549.84;5009300;28;20029;-76
2022/10/22 02:57:53;;;;;;;4.85;0.93;;;;;;;12.18;100.00;98554.44;5034508;28;20061;-77
2022/10/22 03:00:18;;;;;;;2.10;0.60;;;;;;;12.16;100.00;98539.44;5011141;28;20366;-76
2022/10/22 03:02:44;;;;;;;1.58;0.80;;;;;;;12.10;100.00;98532.97;5032808;28;20061;-75
2022/10/22 03:05:09;;;;;;;2.25;0.50;;;;;;;12.06;100.00;98546.16;5014064;28;20029;-75
2022/10/22 03:07:34;;;;;;;0.55;0.40;;;;;;;12.00;100.00;98546.22;5005595;28;20045;-74
2022/10/22 03:10:00;;;;;;;1.02;0.43;;;;;;;12.01;100.00;98539.75;5008171;28;20026;-74
2022/10/22 03:12:25;;;;;;;2.30;0.47;;;;;;;12.08;100.00;98543.25;5002098;28;20029;-75
2022/10/22 03:14:50;;;;;;;2.33;0.45;;;;;;;12.04;100.00;98531.97;5003761;28;20369;-75
2022/10/22 03:17:17;;;;;;;0.40;0.30;;;;;;;12.08;100.00;98532.41;5000285;28;20391;-75
2022/10/22 03:19:42;;;;;;;0.93;0.40;;;;;;;12.15;100.00;98532.34;4999982;28;20037;-76
2022/10/22 03:22:12;;;;;;;0.50;0.30;;;;;;;12.17;100.00;98528.34;4997918;28;20022;-75
2022/10/22 03:24:41;;;;;;;0.50;0.20;;;;;;;12.20;100.00;98513.50;4997518;28;20030;-75
2022/10/22 03:27:07;;;;;;;2.60;0.40;;;;;;;12.28;100.00;98527.63;4992630;28;20106;-75
2022/10/22 03:29:36;;;;;;;0.60;0.30;;;;;;;12.30;100.00;98530.13;4998685;28;20042;-75
2022/10/22 03:32:01;;;;;;;3.55;0.52;;;;;;;12.22;100.00;98517.66;5000095;28;20105;-76
2022/10/22 03:34:27;;;;;;;8.85;0.50;;;;;;;12.27;100.00;98517.00;4993344;28;20145;-75
2022/10/22 03:36:52;;;;;;;2.33;0.40;;;;;;;12.28;100.00;98515.94;4994816;28;20049;-75
2022/10/22 03:39:19;;;;;;;0.80;0.40;;;;;;;12.22;100.00;98528.53;4996951;28;20062;-75
2022/10/22 03:41:45;;;;;;;0.57;0.30;;;;;;;12.20;100.00;98508.91;4997011;28;20035;-75
2022/10/22 03:44:11;;;;;;;0.90;0.30;;;;;;;12.30;100.00;98505.72;4996822;28;20029;-75
2022/10/22 03:46:36;;;;;;;1.05;0.25;;;;;;;12.28;100.00;98489.66;4986629;28;20026;-75
2022/10/22 03:49:02;;;;;;;1.00;0.40;;;;;;;12.38;100.00;98489.16;4990750;28;20026;-75
2022/10/22 03:51:27;;;;;;;2.30;0.38;;;;;;;12.43;100.00;98486.59;5001936;28;20462;-77
2022/10/22 03:53:53;;;;;;;1.58;0.38;;;;;;;12.42;100.00;98479.53;4999474;28;20101;-75
2022/10/22 03:56:18;;;;;;;0.68;0.40;;;;;;;12.46;100.00;98464.44;4990184;28;20088;-76
2022/10/22 03:58:44;;;;;;;4.38;0.30;;;;;;;12.47;100.00;98463.41;4986848;28;20038;-75
2022/10/22 04:01:11;;;;;;;3.35;0.40;;;;;;;12.46;100.00;98475.31;4993666;28;20468;-73
2022/10/22 04:03:37;;;;;;;1.85;0.40;;;;;;;12.39;100.00;98477.28;4973076;28;20033;-74
2022/10/22 04:06:08;;;;;;;4.88;0.60;;;;;;;12.50;100.00;98497.41;4987834;28;20515;-74
2022/10/22 04:08:34;;;;;;;2.75;0.60;;;;;;;12.40;100.00;98507.94;4987422;28;20030;-75
2022/10/22 04:10:59;;;;;;;1.65;0.38;;;;;;;12.25;100.00;98519.13;5033193;23;20046;-77
2022/10/22 04:13:25;;;;;;;7.95;0.68;;;;;;;12.21;100.00;98531.47;5012739;28;20079;-74
2022/10/22 04:15:51;;;;;;;1.15;0.50;;;;;;;12.23;100.00;98541.00;5013908;28;20116;-75
2022/10/22 04:18:22;;;;;;;3.13;0.40;;;;;;;12.28;100.00;98554.75;5007968;28;20201;-76
2022/10/22 04:20:50;;;;;;;2.75;0.50;;;;;;;12.34;100.00;98561.19;5017714;28;20024;-77
2022/10/22 04:23:15;;;;;;;1.35;0.32;;;;;;;12.07;100.00;98509.84;5049059;28;20025;-76
2022/10/22 04:25:40;;;;;;;3.15;0.60;;;;;;;12.21;100.00;98542.31;5035945;28;20051;-74
2022/10/22 04:28:07;;;;;;;4.32;0.43;;;;;;;12.23;100.00;98540.19;5044938;28;20478;-75
2022/10/22 04:30:34;;;;;;;0.80;0.40;;;;;;;12.13;100.00;98519.00;5032298;28;20048;-76
2022/10/22 04:32:59;;;;;;;6.45;0.57;;;;;;;12.35;100.00;98554.72;5032668;28;20048;-75
2022/10/22 04:35:24;;;;;;;4.72;0.60;;;;;;;12.14;100.00;98549.66;5046974;28;20025;-77
2022/10/22 04:37:50;;;;;;;2.20;0.60;;;;;;;12.14;100.00;98568.66;5050878;28;20450;-78
2022/10/22 04:40:15;;;;;;;3.13;0.82;;;;;;;12.05;100.00;98549.06;5048098;28;20031;-75
2022/10/22 04:42:41;;;;;;;0.93;0.40;;;;;;;12.15;100.00;98548.59;5031015;28;20098;-76
2022/10/22 04:45:06;;;;;;;0.60;0.45;;;;;;;12.10;100.00;98548.44;5050428;28;20048;-76
2022/10/22 04:47:32;;;;;;;0.95;0.43;;;;;;;11.91;100.00;98537.50;5050046;28;20036;-74
2022/10/22 04:49:57;;;;;;;1.35;0.45;;;;;;;11.79;100.00;98544.66;5030309;28;20036;-74
2022/10/22 04:52:22;;;;;;;1.45;0.60;;;;;;;11.75;100.00;98535.28;5041131;28;20502;-73
2022/10/22 04:54:48;;;;;;;6.28;0.57;;;;;;;11.99;100.00;98544.53;5043838;28;20120;-73
2022/10/22 04:57:13;;;;;;;2.30;0.50;;;;;;;11.96;100.00;98553.94;5046381;28;20111;-74
2022/10/22 04:59:39;;;;;;;2.85;0.57;;;;;;;11.93;100.00;98556.28;5042255;28;20044;-75
2022/10/22 05:02:04;;;;;;;1.42;0.60;;;;;;;11.75;100.00;98551.53;5029046;28;20474;-76
2022/10/22 05:04:29;;;;;;;3.40;0.50;;;;;;;11.71;100.00;98559.28;5034348;28;20036;-77
2022/10/22 05:06:55;;;;;;;7.72;0.70;;;;;;;11.84;100.00;98577.34;5052869;28;20490;-78
2022/10/22 05:09:20;;;;;;;3.97;0.40;;;;;;;11.81;100.00;98564.22;5032904;28;20024;-78
2022/10/22 05:11:48;;;;;;;0.30;0.30;;;;;;;12.01;100.00;98592.09;5027360;28;20025;-78
2022/10/22 05:14:19;;;;;;;1.10;0.40;;;;;;;11.78;100.00;98580.91;5028447;28;20029;-77
2022/10/22 05:16:46;;;;;;;1.83;0.40;;;;;;;11.79;100.00;98604.28;5052446;28;20044;-77
2022/10/22 05:19:22;;;;;;;3.33;0.50;;;;;;;11.65;100.00;98611.63;5031523;28;20031;-74
2022/10/22 05:21:48;;;;;;;0.75;0.43;;;;;;;11.52;100.00;98614.38;5026257;28;20041;-77
2022/10/22 05:24:14;;;;;;;1.17;0.60;;;;;;;11.51;100.00;98604.59;5044758;28;20060;-77
2022/10/22 05:26:39;;;;;;;0.70;0.40;;;;;;;11.53;100.00;98597.94;5025996;28;20074;-77
2022/10/22 05:29:04;;;;;;;1.67;0.60;;;;;;;11.74;100.00;98623.91;5046928;28;20032;-77
2022/10/22 05:31:29;;;;;;;1.35;0.50;;;;;;;11.73;100.00;98610.53;5046540;28;20039;-77
2022/10/22 05:33:55;;;;;;;3.08;0.50;;;;;;;11.61;100.00;98608.53;5049621;28;20028;-77
2022/10/22 05:36:21;;;;;;;2.35;0.60;;;;;;;11.68;100.00;98634.75;5051764;28;20029;-77
2022/10/22 05:38:47;;;;;;;4.97;0.63;;;;;;;11.68;100.00;98624.75;5043394;28;20105;-77
2022/10/22 05:41:20;;;;;;;1.67;0.70;;;;;;;11.69;100.00;98631.00;5032971;28;20510;-77
2022/10/22 05:43:46;;;;;;;5.88;0.50;;;;;;;11.57;100.00;98626.25;5026291;28;20033;-77
2022/10/22 05:46:14;;;;;;;2.80;0.60;;;;;;;11.49;100.00;98642.75;5051636;28;20630;-77
2022/10/22 05:48:40;;;;;;;3.00;0.60;;;;;;;11.50;100.00;98649.84;5033278;28;20029;-75
2022/10/22 05:51:08;;;;;;;2.47;0.47;;;;;;;11.54;100.00;98651.06;5051004;28;20017;-77
2022/10/22 05:53:35;;;;;;;5.25;0.60;;;;;;;11.54;100.00;98655.66;5028890;28;20036;-77
2022/10/22 05:56:04;;;;;;;3.00;0.57;;;;;;;11.46;100.00;98636.94;5032369;28;20020;-77
2022/10/22 05:58:30;;;;;;;7.07;1.27;;;;;;;11.61;100.00;98673.56;5042713;28;20029;-75
2022/10/22 06:01:01;;;;;;;3.47;0.85;;;;;;;11.48;100.00;98662.75;5024363;28;20075;-81
2022/10/22 06:03:27;;;;;;;2.00;0.80;;;;;;;11.51;100.00;98672.34;5025560;28;20083;-74
2022/10/22 06:05:53;;;;;;;3.55;0.90;;;;;;;11.31;100.00;98646.13;5046958;28;20064;-74
2022/10/22 06:08:18;;;;;;;1.13;0.70;;;;;;;11.36;100.00;98650.91;5024747;28;22145;-76
2022/10/22 06:10:44;;;;;;;3.25;1.20;;;;;;;11.37;100.00;98676.94;5049285;28;20024;-74
2022/10/22 06:13:09;;;;;;;3.58;1.75;;;;;;;11.38;100.00;98689.44;5049353;28;20509;-73
2022/10/22 06:15:35;;;;;;;9.98;3.45;;;;;;;11.41;100.00;98672.78;5043689;28;20025;-73
2022/10/22 06:18:00;;;;;;;14.43;5.40;;;;;;;11.59;100.00;98710.88;5054084;28;20033;-75
2022/10/22 06:20:25;;;;;;;14.07;4.63;;;;;;;11.69;100.00;98693.34;5035093;28;20032;-75
2022/10/22 06:22:50;;;;;;;17.42;5.38;;;;;;;11.75;100.00;98689.78;5052973;28;20050;-75
2022/10/22 06:25:16;;;;;;;12.00;4.15;;;;;;;11.75;100.00;98695.19;5031617;28;20036;-76
2022/10/22 06:27:42;;;;;;;10.82;4.45;;;;;;;11.65;100.00;98686.66;5050927;28;20026;-77
2022/10/22 06:30:08;;;;;;;6.18;2.90;;;;;;;11.88;100.00;98716.84;5046906;28;20425;-72
2022/10/22 06:32:33;;;;;;;7.55;1.83;;;;;;;11.85;100.00;98701.81;5044124;28;20047;-78
2022/10/22 06:34:58;;;;;;;4.05;1.73;;;;;;;11.93;100.00;98711.63;5045334;28;20112;-76
2022/10/22 06:37:24;;;;;;;3.13;1.20;;;;;;;12.01;100.00;98713.28;5048567;28;20025;-74
2022/10/22 06:39:49;;;;;;;2.42;0.98;;;;;;;12.13;100.00;98708.00;5053926;28;20036;-74
2022/10/22 06:42:14;;;;;;;1.40;0.90;;;;;;;12.04;100.00;98693.84;5049673;28;20017;-74
2022/10/22 06:44:40;;;;;;;2.90;1.30;;;;;;;12.14;100.00;98706.97;5052789;28;20467;-73
2022/10/22 06:47:05;;;;;;;5.50;1.33;;;;;;;12.35;100.00;98701.22;5029465;28;20032;-75
2022/10/22 06:49:30;;;;;;;3.33;1.48;;;;;;;12.39;100.00;98704.31;5043085;28;20653;-75
2022/10/22 06:51:55;;;;;;;1.60;0.98;;;;;;;12.63;100.00;98713.59;5032246;28;20017;-76
2022/10/22 06:54:21;;;;;;;3.05;1.23;;;;;;;12.87;100.00;98723.63;5048045;28;20029;-75
2022/10/22 06:56:47;;;;;;;3.38;0.90;;;;;;;13.01;100.00;98718.91;5038542;28;20033;-75
2022/10/22 06:59:12;;;;;;;2.25;0.80;;;;;;;13.08;100.00;98724.31;5030096;28;20032;-75
2022/10/22 07:01:38;;;;;;;2.00;0.70;;;;;;;13.24;100.00;98729.19;5041116;28;20021;-75
2022/10/22 07:04:04;;;;;;;1.65;0.43;;;;;;;13.38;100.00;98729.91;5047667;28;20090;-75
2022/10/22 07:06:30;;;;;;;2.72;0.40;;;;;;;13.41;100.00;98723.22;5047505;28;20099;-75
2022/10/22 07:08:57;;;;;;;1.80;0.35;;;;;;;13.76;100.00;98740.63;5044599;28;20088;-75
2022/10/22 07:11:25;;;;;;;3.60;0.50;;;;;;;13.87;100.00;98743.66;5043040;28;20052;-76
2022/10/22 07:13:56;;;;;;;3.05;0.73;;;;;;;13.95;100.00;98743.34;5025116;28;20490;-76
2022/10/22 07:16:22;;;;;;;1.48;0.73;;;;;;;14.02;100.00;98744.13;5042401;28;20755;-75
2022/10/22 07:18:47;;;;;;;1.90;0.60;;;;;;;14.35;100.00;98753.75;5049353;28;20024;-75
2022/10/22 07:21:15;;;;;;;2.63;0.88;;;;;;;14.91;100.00;98752.59;5037121;28;20501;-75
2022/10/22 07:23:41;;;;;;;2.53;0.80;;;;;;;14.91;100.00;98741.72;5046274;28;20029;-75
2022/10/22 07:26:07;;;;;;;3.72;0.70;;;;;;;14.78;100.00;98763.69;5052432;28;20037;-75
2022/10/22 07:28:33;;;;;;;3.20;1.20;;;;;;;14.50;100.00;98721.53;5052138;28;20104;-75
2022/10/22 07:30:59;;;;;;;3.17;1.40;;;;;;;14.58;100.00;98750.34;5052308;28;20025;-75
2022/10/22 07:33:25;;;;;;;3.10;0.80;;;;;;;14.74;100.00;98735.25;5031660;28;20512;-75
2022/10/22 07:35:55;;;;;;;5.18;0.60;;;;;;;16.16;100.00;98745.16;5039678;28;20029;-79
2022/10/22 07:38:21;;;;;;;1.52;0.80;;;;;;;16.93;100.00;98742.06;5030583;28;20387;-78
2022/10/22 07:40:46;;;;;;;1.75;0.65;;;;;;;16.95;100.00;98734.44;5034713;28;20021;-78
2022/10/22 07:43:11;;;;;;;0.98;0.55;;;;;;;16.58;100.00;98714.88;5053288;28;20036;-77
2022/10/22 07:45:37;;;;;;;2.85;0.60;;;;;;;16.26;100.00;98739.91;5054147;28;20029;-77
2022/10/22 07:48:02;;;;;;;1.92;0.43;;;;;;;16.06;100.00;98726.69;5049096;28;20431;-74
2022/10/22 07:50:27;;;;;;;3.90;0.57;;;;;;;16.18;100.00;98751.22;5043636;28;20025;-74
2022/10/22 07:52:53;;;;;;;1.50;0.73;;;;;;;16.69;100.00;98751.41;5032381;28;20021;-73
2022/10/22 07:55:18;;;;;;;1.88;0.50;;;;;;;16.83;100.00;98737.22;5034451;28;20028;-74
2022/10/22 07:57:43;;;;;;;2.85;0.60;;;;;;;18.06;100.00;98750.13;5031711;28;20548;-74
2022/10/22 08:00:09;;;;;;;2.30;0.40;;;;;;;19.75;100.00;98746.38;5024980;28;20032;-74
2022/10/22 08:02:35;;;;;;;2.72;0.40;;;;;;;20.78;100.00;98731.19;5025540;28;20029;-74
2022/10/22 08:05:00;;;;;;;1.55;0.60;;;;;;;20.75;100.00;98743.56;5030229;28;20389;-74
2022/10/22 08:07:25;;;;;;;0.32;0.20;;;;;;;19.80;100.00;98745.56;5034658;28;20115;-74
2022/10/22 08:09:51;;;;;;;0.77;0.40;;;;;;;18.93;100.00;98745.69;5027024;28;20025;-73
2022/10/22 08:12:17;;;;;;;3.88;0.40;;;;;;;18.20;100.00;98747.00;5046011;28;20017;-78
2022/10/22 08:14:42;;;;;;;1.00;0.50;;;;;;;18.83;100.00;98753.78;5030965;28;20033;-76
2022/10/22 08:17:07;;;;;;;3.92;0.50;;;;;;;20.87;100.00;98756.22;5028594;28;20111;-78
2022/10/22 08:19:34;;;;;;;1.70;0.90;;;;;;;22.30;100.00;98740.47;5047966;28;20025;-78
2022/10/22 08:21:59;;;;;;;1.70;0.50;;;;;;;24.13;90.04;98760.66;5053952;28;20029;-77
2022/10/22 08:24:25;;;;;;;0.50;0.38;;;;;;;24.89;79.56;98751.44;5043919;28;20070;-77
2022/10/22 08:26:53;;;;;;;1.13;0.40;;;;;;;24.51;76.48;98728.44;5050837;28;20039;-76
2022/10/22 08:29:20;;;;;;;0.88;0.50;;;;;;;23.59;79.49;98748.75;5030841;28;20478;-76
2022/10/22 08:31:45;;;;;;;0.60;0.30;;;;;;;20.53;100.00;98754.72;5033453;28;20505;-75
2022/10/22 08:34:11;;;;;;;0.80;0.28;;;;;;;20.37;100.00;98750.28;5035448;28;20054;-76
2022/10/22 08:36:36;;;;;;;0.98;0.30;;;;;;;21.45;100.00;98765.09;5035129;28;20047;-76
2022/10/22 08:39:01;;;;;;;0.82;0.35;;;;;;;22.81;92.92;98750.41;5048459;28;20012;-75
2022/10/22 08:41:27;;;;;;;2.17;0.40;;;;;;;23.40;82.49;98741.19;5050019;28;20211;-75
2022/10/22 08:44:23;;;;;;;3.40;0.40;;;;;;;24.82;73.38;98762.06;5040046;28;20542;-72
2022/10/22 08:47:26;;;;;;;0.80;0.30;;;;;;;24.52;71.14;98751.38;5034928;28;20097;-75
2022/10/22 08:49:53;;;;;;;0.45;0.30;;;;;;;24.34;71.85;98753.81;5040618;28;20097;-81
2022/10/22 08:52:19;;;;;;;0.60;0.38;;;;;;;23.79;73.51;98756.88;5021205;28;20041;-78
2022/10/22 08:55:00;;;;;;;0.93;0.52;;;;;;;22.92;80.11;98765.81;5051081;28;20032;-77
2022/10/22 08:57:44;;;;;;;1.65;0.40;;;;;;;23.53;78.24;98770.06;5049478;28;20035;-75
2022/10/22 09:00:35;;;;;;;3.03;0.50;;;;;;;23.48;76.44;98772.88;5053296;28;20075;-76
2022/10/22 09:03:28;;;;;;;0.32;0.20;;;;;;;25.19;66.88;98762.38;5037983;28;20072;-78
2022/10/22 09:06:07;;;;;;;1.75;0.45;;;;;;;25.64;65.02;98773.84;5028701;28;20025;-75
2022/10/22 09:08:35;;;;;;;0.32;0.20;;;;;;;25.17;66.22;98772.94;5025972;28;20060;-77
2022/10/22 09:11:18;;;;;;;3.67;0.43;;;;;;;26.17;62.93;98760.44;5038260;28;20379;-78
2022/10/22 09:13:45;;;;;;;1.63;0.70;;;;;;;26.19;61.90;98765.66;5054583;28;20024;-81
2022/10/22 09:16:16;;;;;;;0.93;0.40;;;;;;;26.63;60.21;98772.56;5036026;28;20116;-80
2022/10/22 09:18:44;;;;;;;1.25;0.65;;;;;;;27.25;58.64;98770.06;5045634;28;20104;-80
2022/10/22 09:21:16;;;;;;;3.28;0.40;;;;;;;27.27;58.08;98772.53;5035185;28;20044;-78
2022/10/22 09:23:56;;;;;;;1.17;0.45;;;;;;;26.48;59.22;98764.50;5054389;28;20039;-79
2022/10/22 09:26:22;;;;;;;2.10;0.40;;;;;;;26.65;58.32;98734.22;5051532;28;20490;-80
2022/10/22 09:28:51;;;;;;;2.25;0.50;;;;;;;26.24;60.46;98757.22;5033797;28;20032;-77
2022/10/22 09:31:17;;;;;;;1.88;0.40;;;;;;;27.35;57.49;98759.84;5051587;28;20021;-78
2022/10/22 09:33:44;;;;;;;1.95;0.40;;;;;;;27.99;54.98;98776.31;5045328;28;20037;-76
2022/10/22 09:36:20;;;;;;;1.27;0.40;;;;;;;27.40;54.34;98765.28;5020684;28;20360;-79
2022/10/22 09:38:48;;;;;;;2.20;0.20;;;;;;;27.70;54.83;98764.50;5045081;28;20021;-77
2022/10/22 09:41:14;;;;;;;0.73;0.30;;;;;;;27.56;53.68;98794.31;5049801;28;20045;-78
2022/10/22 09:43:40;;;;;;;2.30;0.20;;;;;;;29.14;51.11;98777.22;5051251;28;20040;-77
2022/10/22 09:46:13;;;;;;;0.85;0.20;;;;;;;29.19;50.96;98793.78;5047222;28;20024;-76
2022/10/22 09:48:41;;;;;;;0.63;0.22;;;;;;;30.95;46.90;98800.22;5026568;28;20115;-75
2022/10/22 09:51:35;;;;;;;;;;;;;;;29.54;47.10;98802.13;5048769;28;20024;-75
2022/10/22 09:54:10;;;;;;;0.63;0.30;;;;;;;29.09;48.62;98777.38;5052245;28;19913;-76
2022/10/22 09:56:41;;;;;;;0.70;0.22;;;;;;;27.74;53.09;98809.97;5029959;28;20044;-76
2022/10/22 09:59:15;;;;;;;0.65;0.30;;;;;;;27.93;52.21;98812.59;5046200;28;20036;-77
2022/10/22 10:01:40;;;;;;;1.73;0.30;;;;;;;28.21;52.03;98794.91;5047886;28;20025;-80
2022/10/22 10:04:12;;;;;;;2.95;0.50;;;;;;;29.59;50.41;98804.75;5046149;28;20028;-80
2022/10/22 10:06:40;;;;;;;0.68;0.43;;;;;;;30.44;48.26;98807.69;5052912;28;20036;-80
2022/10/22 10:09:14;;;;;;;1.65;0.32;;;;;;;30.80;45.99;98823.94;5043879;28;20043;-80
2022/10/22 10:11:47;;;;;;;0.88;0.40;;;;;;;30.96;45.14;98821.41;5044102;22;20486;-74
2022/10/22 10:14:36;;;;;;;2.55;0.50;;;;;;;31.27;45.08;98827.78;5009143;28;20053;-72
2022/10/22 10:17:29;;;;;;;1.73;0.50;;;;;;;31.88;43.04;98825.28;5009329;28;20048;-74
2022/10/22 10:20:16;;;;;;;1.77;0.40;;;;;;;30.25;45.25;98824.03;5008797;28;20797;-74
2022/10/22 10:22:58;;;;;;;1.85;0.30;;;;;;;30.43;46.01;98828.38;5006869;28;20409;-74
2022/10/22 10:25:29;;;;;;;1.02;0.40;;;;;;;29.25;48.31;98829.50;5005302;28;20032;-74
2022/10/22 10:28:19;;;;;;;0.55;0.30;;;;;;;30.23;46.75;98821.56;5006879;28;20609;-74
2022/10/22 10:30:57;;;;;;;1.45;0.40;;;;;;;31.04;45.61;98825.31;5002772;28;20096;-74
2022/10/22 10:33:41;;;;;;;3.42;0.63;;;;;;;31.54;45.97;98835.63;5005941;28;20045;-75
2022/10/22 10:36:15;;;;;;;1.17;0.28;;;;;;;28.53;47.59;98818.81;5003957;28;20037;-74
2022/10/22 10:38:57;;;;;;;2.15;0.40;;;;;;;27.66;51.60;98844.09;5001140;28;20038;-74
2022/10/22 10:41:44;;;;;;;1.83;0.43;;;;;;;28.33;50.25;98837.69;4988323;28;20026;-74
2022/10/22 10:44:37;;;;;;;0.90;0.40;;;;;;;27.78;51.13;98843.53;5009633;28;20084;-74
2022/10/22 10:47:31;;;;;;;0.68;0.30;;;;;;;26.72;52.42;98839.25;5010484;28;20029;-74
2022/10/22 10:50:21;;;;;;;2.10;0.30;;;;;;;28.74;49.31;98844.09;5007244;28;20045;-74
2022/10/22 10:53:07;;;;;;;0.50;0.20;;;;;;;29.35;48.30;98847.88;5003232;28;20033;-74
2022/10/22 10:55:40;;;;;;;1.55;0.22;;;;;;;30.42;44.63;98842.66;5005440;28;20037;-75
2022/10/22 10:58:27;;;;;;;2.47;0.35;;;;;;;31.03;43.73;98846.03;4997437;28;22465;-75
2022/10/22 11:01:08;;;;;;;0.52;0.25;;;;;;;30.78;44.33;98845.81;5013022;28;20022;-74
2022/10/22 11:03:46;;;;;;;2.72;0.40;;;;;;;32.07;42.46;98817.25;4997463;28;20076;-74
2022/10/22 11:06:15;;;;;;;1.40;0.30;;;;;;;31.52;43.19;98835.19;5003261;28;20034;-75
2022/10/22 11:08:53;;;;;;;3.10;0.63;;;;;;;32.49;42.35;98830.28;5008131;28;20073;-75
2022/10/22 11:11:25;;;;;;;1.83;0.30;;;;;;;33.07;40.72;98835.81;5004433;28;20030;-74
2022/10/22 11:14:31;;;;;;;7.00;0.40;;;;;;;32.31;41.54;98838.88;5003177;28;20034;-74
2022/10/22 11:17:02;;;;;;;0.98;0.28;;;;;;;33.74;41.65;98839.84;5001579;28;20470;-75
2022/10/22 11:19:42;;;;;;;1.27;0.35;;;;;;;33.78;39.05;98832.34;5003473;28;20038;-75
2022/10/22 11:22:25;;;;;;;1.20;0.30;;;;;;;33.53;39.67;98830.75;5001182;28;20026;-75
2022/10/22 11:25:01;;;;;;;0.60;0.30;;;;;;;34.15;38.89;98823.75;4998236;28;20096;-75
2022/10/22 11:27:42;;;;;;;1.00;0.38;;;;;;;32.66;41.30;98835.66;4999939;28;20079;-75
2022/10/22 11:30:13;;;;;;;1.77;0.50;;;;;;;32.10;39.96;98835.31;5007401;28;20036;-74
2022/10/22 11:32:41;;;;;;;1.98;0.32;;;;;;;32.35;39.47;98835.38;4996211;28;20040;-73
2022/10/22 11:35:13;;;;;;;1.00;0.38;;;;;;;32.29;41.83;98824.38;4999739;28;20029;-75
2022/10/22 11:37:40;;;;;;;2.70;0.43;;;;;;;32.70;40.01;98811.38;4988981;28;20523;-76
2022/10/22 11:40:20;;;;;;;2.05;0.45;;;;;;;34.47;38.36;98812.53;5004454;28;20034;-75